createdAt,value
2018-11-03T00:01:14.069Z,14.70
2018-11-03T00:03:46.529Z,14.93
2018-11-03T00:06:19.009Z,15.07
2018-11-03T00:08:51.399Z,13.90
2018-11-03T00:11:23.827Z,14.30
2018-11-03T00:13:56.221Z,14.80
2018-11-03T00:16:29.008Z,14.70
2018-11-03T00:19:01.580Z,13.90
2018-11-03T00:21:34.047Z,14.20
2018-11-03T00:24:06.541Z,14.93
2018-11-03T00:26:38.982Z,14.10
2018-11-03T00:29:11.425Z,13.90
2018-11-03T00:31:43.842Z,14.40
2018-11-03T00:34:16.739Z,14.07
2018-11-03T00:36:49.142Z,14.50
2018-11-03T00:39:21.672Z,13.83
2018-11-03T00:41:54.061Z,15.10
2018-11-03T00:44:26.576Z,14.03
2018-11-03T00:46:59.055Z,14.97
2018-11-03T00:49:31.577Z,14.37
2018-11-03T00:52:04.536Z,14.40
2018-11-03T00:54:37.229Z,14.07
2018-11-03T00:57:09.646Z,14.10
2018-11-03T00:59:42.309Z,13.83
2018-11-03T01:02:14.718Z,13.90
2018-11-03T01:04:47.190Z,14.10
2018-11-03T01:07:19.632Z,14.23
2018-11-03T01:09:52.177Z,14.60
2018-11-03T01:12:24.605Z,14.67
2018-11-03T01:14:56.999Z,15.07
2018-11-03T01:17:29.469Z,14.43
2018-11-03T01:20:01.905Z,15.43
2018-11-03T01:22:34.462Z,15.10
2018-11-03T01:25:07.550Z,15.23
2018-11-03T01:27:40.218Z,14.90
2018-11-03T01:30:14.150Z,14.60
2018-11-03T01:32:46.600Z,15.13
2018-11-03T01:35:19.082Z,14.47
2018-11-03T01:37:51.560Z,15.07
2018-11-03T01:40:24.214Z,14.57
2018-11-03T01:42:56.686Z,15.20
2018-11-03T01:45:29.275Z,15.20
2018-11-03T01:48:01.784Z,16.67
2018-11-03T01:50:34.229Z,15.77
2018-11-03T01:53:06.658Z,15.63
2018-11-03T01:55:39.337Z,16.50
2018-11-03T01:58:11.812Z,16.10
2018-11-03T02:00:44.277Z,16.80
2018-11-03T02:03:16.660Z,15.77
2018-11-03T02:05:49.234Z,15.57
2018-11-03T02:08:21.688Z,16.97
2018-11-03T02:10:54.149Z,16.33
2018-11-03T02:13:26.682Z,15.87
2018-11-03T02:15:59.156Z,15.73
2018-11-03T02:18:31.605Z,16.10
2018-11-03T02:21:04.313Z,16.50
2018-11-03T02:23:36.974Z,17.10
2018-11-03T02:26:09.514Z,17.10
2018-11-03T02:28:41.984Z,15.77
2018-11-03T02:31:14.491Z,17.33
2018-11-03T02:33:46.897Z,17.20
2018-11-03T02:36:19.333Z,17.10
2018-11-03T02:38:51.936Z,16.40
2018-11-03T02:41:24.475Z,17.17
2018-11-03T02:43:56.954Z,17.57
2018-11-03T02:46:29.330Z,18.50
2018-11-03T02:49:02.113Z,18.47
2018-11-03T02:51:34.824Z,17.73
2018-11-03T02:54:07.340Z,17.50
2018-11-03T02:56:39.782Z,18.53
2018-11-03T02:59:12.267Z,17.83
2018-11-03T03:01:44.722Z,17.83
2018-11-03T03:04:17.446Z,18.53
2018-11-03T03:06:49.852Z,19.13
2018-11-03T03:09:22.282Z,18.50
2018-11-03T03:11:54.750Z,18.57
2018-11-03T03:14:27.134Z,17.83
2018-11-03T03:16:59.539Z,17.93
2018-11-03T03:19:31.988Z,18.53
2018-11-03T03:22:04.493Z,18.83
2018-11-03T03:24:36.919Z,19.17
2018-11-03T03:27:09.403Z,18.60
2018-11-03T03:29:41.964Z,18.67
2018-11-03T03:32:14.303Z,17.93
2018-11-03T03:34:46.694Z,18.40
2018-11-03T03:37:19.158Z,17.63
2018-11-03T03:39:51.549Z,18.33
2018-11-03T03:42:23.966Z,19.03
2018-11-03T03:44:56.387Z,18.50
2018-11-03T03:47:28.780Z,16.90
2018-11-03T03:50:01.282Z,18.23
2018-11-03T03:52:33.690Z,19.10
2018-11-03T03:55:06.650Z,19.03
2018-11-03T03:57:39.118Z,18.47
2018-11-03T04:00:12.196Z,17.57
2018-11-03T04:02:44.627Z,17.23
2018-11-03T04:05:17.176Z,18.30
2018-11-03T04:07:49.623Z,18.20
2018-11-03T04:10:22.034Z,19.30
2018-11-03T04:12:54.440Z,19.27
2018-11-03T04:15:26.886Z,18.43
2018-11-03T04:17:59.297Z,20.17
2018-11-03T04:20:31.699Z,18.17
2018-11-03T04:23:04.380Z,19.43
2018-11-03T04:25:36.786Z,19.67
2018-11-03T04:28:09.357Z,18.50
2018-11-03T04:30:41.827Z,18.73
2018-11-03T04:33:14.265Z,19.70
2018-11-03T04:35:46.720Z,19.20
2018-11-03T04:38:19.090Z,19.77
2018-11-03T04:40:51.734Z,17.77
2018-11-03T04:43:24.205Z,19.67
2018-11-03T04:45:56.821Z,18.27
2018-11-03T04:48:29.319Z,19.93
2018-11-03T04:51:01.869Z,18.50
2018-11-03T04:53:34.525Z,18.87
2018-11-03T04:56:06.943Z,19.93
2018-11-03T04:58:39.694Z,18.30
2018-11-03T05:01:12.095Z,19.40
2018-11-03T05:03:44.546Z,19.87
2018-11-03T05:06:16.916Z,19.83
2018-11-03T05:08:49.412Z,18.40
2018-11-03T05:11:22.070Z,19.70
2018-11-03T05:13:54.823Z,20.63
2018-11-03T05:16:27.225Z,19.80
2018-11-03T05:18:59.989Z,19.40
2018-11-03T05:21:32.423Z,20.57
2018-11-03T05:24:05.010Z,20.77
2018-11-03T05:26:37.718Z,21.30
2018-11-03T05:29:10.116Z,22.87
2018-11-03T05:31:42.653Z,23.70
2018-11-03T05:34:15.055Z,24.47
2018-11-03T05:36:47.461Z,25.03
2018-11-03T05:39:19.872Z,24.60
2018-11-03T05:41:52.306Z,23.63
2018-11-03T05:44:24.711Z,23.13
2018-11-03T05:46:57.274Z,24.10
2018-11-03T05:49:30.075Z,23.30
2018-11-03T05:52:02.557Z,22.20
2018-11-03T05:54:34.967Z,22.53
2018-11-03T05:57:07.793Z,20.63
2018-11-03T05:59:40.200Z,20.47
2018-11-03T06:02:12.573Z,22.30
2018-11-03T06:04:44.973Z,21.33
2018-11-03T06:07:17.474Z,20.73
2018-11-03T06:09:50.078Z,20.43
2018-11-03T06:12:22.599Z,19.77
2018-11-03T06:14:55.011Z,20.90
2018-11-03T06:17:27.498Z,19.87
2018-11-03T06:19:59.925Z,20.77
2018-11-03T06:22:32.399Z,21.07
2018-11-03T06:25:05.949Z,20.30
2018-11-03T06:27:38.715Z,21.53
2018-11-03T06:30:11.514Z,20.27
2018-11-03T06:32:43.973Z,20.43
2018-11-03T06:35:16.509Z,20.90
2018-11-03T06:37:48.914Z,21.57
2018-11-03T06:40:21.698Z,20.43
2018-11-03T06:42:54.161Z,21.27
2018-11-03T06:45:26.550Z,20.70
2018-11-03T06:47:59.335Z,21.50
2018-11-03T06:50:31.726Z,20.57
2018-11-03T06:53:05.261Z,20.23
2018-11-03T06:55:38.122Z,21.63
2018-11-03T06:58:10.771Z,19.83
2018-11-03T07:00:43.262Z,21.97
2018-11-03T07:03:15.735Z,20.33
2018-11-03T07:05:48.110Z,21.63
2018-11-03T07:08:20.556Z,21.07
2018-11-03T07:10:52.978Z,19.70
2018-11-03T07:13:25.517Z,20.33
2018-11-03T07:15:57.877Z,20.40
2018-11-03T07:18:30.335Z,19.87
2018-11-03T07:21:03.048Z,20.07
2018-11-03T07:23:35.686Z,20.63
2018-11-03T07:26:08.146Z,20.07
2018-11-03T07:28:40.642Z,19.87
2018-11-03T07:31:13.096Z,20.30
2018-11-03T07:33:45.563Z,20.03
2018-11-03T07:36:18.348Z,20.87
2018-11-03T07:38:51.831Z,21.40
2018-11-03T07:41:24.680Z,21.57
2018-11-03T07:43:57.233Z,21.13
2018-11-03T07:46:30.091Z,19.90
2018-11-03T07:49:02.792Z,20.07
2018-11-03T07:51:35.098Z,20.47
2018-11-03T07:54:07.716Z,21.40
2018-11-03T07:56:40.342Z,21.00
2018-11-03T07:59:12.814Z,21.20
2018-11-03T08:01:45.216Z,21.87
2018-11-03T08:04:17.612Z,21.03
2018-11-03T08:06:50.122Z,21.60
2018-11-03T08:09:22.753Z,21.17
2018-11-03T08:11:55.169Z,22.40
2018-11-03T08:14:28.110Z,21.10
2018-11-03T08:17:00.522Z,21.67
2018-11-03T08:19:33.069Z,22.37
2018-11-03T08:22:05.586Z,21.97
2018-11-03T08:24:38.058Z,22.87
2018-11-03T08:27:10.562Z,23.93
2018-11-03T08:29:43.100Z,28.00
2018-11-03T08:32:15.654Z,27.30
2018-11-03T08:34:48.266Z,24.00
2018-11-03T08:37:20.758Z,25.57
2018-11-03T08:39:53.670Z,24.10
2018-11-03T08:42:26.083Z,24.20
2018-11-03T08:44:58.578Z,21.87
2018-11-03T08:47:30.993Z,24.53
2018-11-03T08:50:03.801Z,24.57
2018-11-03T08:52:36.362Z,22.60
2018-11-03T08:55:10.080Z,20.53
2018-11-03T08:57:42.798Z,23.23
2018-11-03T09:00:15.371Z,22.07
2018-11-03T09:02:47.887Z,21.83
2018-11-03T09:05:20.424Z,22.53
2018-11-03T09:07:52.838Z,23.03
2018-11-03T09:10:25.714Z,21.37
2018-11-03T09:12:58.167Z,20.57
2018-11-03T09:15:30.649Z,21.27
2018-11-03T09:18:03.004Z,21.57
2018-11-03T09:20:35.421Z,21.27
2018-11-03T09:23:07.838Z,20.70
2018-11-03T09:25:40.263Z,20.70
2018-11-03T09:28:12.709Z,18.10
2018-11-03T09:30:45.142Z,18.27
2018-11-03T09:33:17.597Z,16.87
2018-11-03T09:35:50.165Z,18.03
2018-11-03T09:38:22.682Z,17.07
2018-11-03T09:40:55.488Z,17.40
2018-11-03T09:43:27.989Z,16.70
2018-11-03T09:46:00.376Z,16.40
2018-11-03T09:48:32.790Z,15.30
2018-11-03T09:51:05.270Z,14.27
2018-11-03T09:53:37.793Z,13.40
2018-11-03T09:56:10.398Z,14.00
2018-11-03T09:58:42.794Z,12.47
2018-11-03T10:01:15.382Z,10.73
2018-11-03T10:03:47.780Z,10.90
2018-11-03T10:06:20.657Z,10.93
2018-11-03T10:08:53.138Z,10.57
2018-11-03T10:11:25.987Z,10.20
2018-11-03T10:13:58.399Z,11.43
2018-11-03T10:16:30.979Z,8.77
2018-11-03T10:19:03.476Z,9.17
2018-11-03T10:21:35.888Z,9.43
2018-11-03T10:24:08.361Z,8.77
2018-11-03T10:26:40.823Z,7.80
2018-11-03T10:29:13.277Z,8.30
2018-11-03T10:31:45.730Z,8.60
2018-11-03T10:34:18.127Z,9.00
2018-11-03T10:36:50.658Z,9.97
2018-11-03T10:39:23.127Z,9.77
2018-11-03T10:41:55.948Z,8.90
2018-11-03T10:44:28.399Z,9.63
2018-11-03T10:47:01.293Z,8.87
2018-11-03T10:49:33.840Z,8.23
2018-11-03T10:52:06.487Z,8.57
2018-11-03T10:54:39.232Z,9.30
2018-11-03T10:57:12.368Z,10.03
2018-11-03T10:59:44.895Z,9.43
2018-11-03T11:02:23.086Z,9.30
2018-11-03T11:07:07.957Z,10.47
2018-11-03T11:09:46.198Z,10.70
2018-11-03T11:12:24.374Z,9.07
2018-11-03T11:14:57.135Z,9.77
2018-11-03T11:17:29.710Z,9.93
2018-11-03T11:20:02.274Z,10.23
2018-11-03T11:22:35.142Z,10.73
2018-11-03T11:25:09.226Z,10.73
2018-11-03T11:27:41.562Z,9.63
2018-11-03T11:30:13.993Z,8.83
2018-11-03T11:32:46.577Z,9.80
2018-11-03T11:35:19.030Z,9.13
2018-11-03T11:37:51.878Z,9.07
2018-11-03T11:40:24.488Z,9.03
2018-11-03T11:42:57.069Z,10.53
2018-11-03T11:45:29.484Z,8.90
2018-11-03T11:48:01.883Z,8.83
2018-11-03T11:50:34.338Z,9.03
2018-11-03T11:53:06.875Z,9.33
2018-11-03T11:55:40.194Z,8.87
2018-11-03T11:58:14.254Z,8.10
2018-11-03T12:00:47.198Z,8.13
2018-11-03T12:03:19.643Z,8.90
2018-11-03T12:05:52.062Z,8.20
2018-11-03T12:08:24.493Z,7.63
2018-11-03T12:10:56.978Z,7.80
2018-11-03T12:13:29.382Z,7.83
2018-11-03T12:16:01.935Z,7.57
2018-11-03T12:18:34.717Z,7.10
2018-11-03T12:21:07.207Z,7.50
2018-11-03T12:23:39.614Z,6.80
2018-11-03T12:26:12.036Z,6.83
2018-11-03T12:28:44.459Z,7.57
2018-11-03T12:31:16.952Z,7.37
2018-11-03T12:33:49.632Z,7.20
2018-11-03T12:36:22.192Z,6.77
2018-11-03T12:38:54.693Z,7.13
2018-11-03T12:41:27.184Z,7.57
2018-11-03T12:43:59.612Z,7.03
2018-11-03T12:46:32.603Z,7.83
2018-11-03T12:49:05.020Z,6.77
2018-11-03T12:51:37.627Z,7.10
2018-11-03T12:54:09.998Z,6.80
2018-11-03T12:56:42.514Z,6.53
2018-11-03T12:59:15.161Z,6.53
2018-11-03T13:01:47.800Z,6.90
2018-11-03T13:04:20.300Z,6.00
2018-11-03T13:06:53.128Z,7.07
2018-11-03T13:09:26.890Z,7.40
2018-11-03T13:11:59.543Z,6.60
2018-11-03T13:14:32.141Z,7.00
2018-11-03T13:17:04.820Z,6.70
2018-11-03T13:19:38.758Z,5.47
2018-11-03T13:22:11.167Z,5.70
2018-11-03T13:24:43.579Z,5.83
2018-11-03T13:27:16.079Z,6.13
2018-11-03T13:29:48.853Z,6.07
2018-11-03T13:32:21.350Z,6.77
2018-11-03T13:34:53.912Z,6.03
2018-11-03T13:37:26.221Z,5.93
2018-11-03T13:39:58.736Z,6.43
2018-11-03T13:42:31.140Z,5.63
2018-11-03T13:45:03.656Z,5.87
2018-11-03T13:47:37.000Z,5.60
2018-11-03T13:50:15.615Z,5.90
2018-11-03T13:52:48.470Z,5.87
2018-11-03T13:55:20.925Z,5.77
2018-11-03T13:57:53.385Z,5.50
2018-11-03T14:00:25.896Z,5.77
2018-11-03T14:02:58.349Z,6.17
2018-11-03T14:05:30.796Z,5.87
2018-11-03T14:08:03.439Z,5.33
2018-11-03T14:10:35.894Z,5.50
2018-11-03T14:13:08.379Z,6.43
2018-11-03T14:15:41.119Z,4.93
2018-11-03T14:18:13.518Z,5.23
2018-11-03T14:20:46.649Z,5.60
2018-11-03T14:23:19.193Z,5.00
2018-11-03T14:25:51.579Z,5.63
2018-11-03T14:28:24.278Z,5.07
2018-11-03T14:30:56.809Z,4.93
2018-11-03T14:33:29.564Z,5.07
2018-11-03T14:36:02.019Z,6.40
2018-11-03T14:38:34.465Z,4.97
2018-11-03T14:41:07.154Z,5.10
2018-11-03T14:43:39.588Z,4.67
2018-11-03T14:46:12.299Z,4.00
2018-11-03T14:48:44.724Z,4.20
2018-11-03T14:51:17.154Z,4.53
2018-11-03T14:53:49.590Z,4.13
2018-11-03T14:56:22.078Z,4.50
2018-11-03T14:58:54.535Z,4.07
2018-11-03T15:01:27.286Z,4.63
2018-11-03T15:03:59.665Z,4.50
2018-11-03T15:06:32.150Z,5.07
2018-11-03T15:09:05.978Z,4.63
2018-11-03T15:11:38.415Z,4.50
2018-11-03T15:14:10.928Z,4.10
2018-11-03T15:16:43.355Z,4.63
2018-11-03T15:19:15.737Z,5.03
2018-11-03T15:21:48.229Z,5.03
2018-11-03T15:24:20.659Z,4.73
2018-11-03T15:26:53.083Z,4.60
2018-11-03T15:29:25.463Z,4.57
2018-11-03T15:31:57.877Z,5.63
2018-11-03T15:34:30.300Z,5.03
2018-11-03T15:37:02.855Z,4.47
2018-11-03T15:39:35.248Z,4.90
2018-11-03T15:42:07.826Z,4.80
2018-11-03T15:44:40.235Z,5.20
2018-11-03T15:47:12.673Z,4.77
2018-11-03T15:49:45.087Z,5.13
2018-11-03T15:52:17.506Z,5.03
2018-11-03T15:54:50.245Z,4.87
2018-11-03T15:57:22.645Z,5.70
2018-11-03T15:59:55.071Z,5.50
2018-11-03T16:02:28.092Z,5.77
2018-11-03T16:05:00.899Z,6.60
2018-11-03T16:07:33.284Z,7.30
2018-11-03T16:10:06.474Z,6.80
2018-11-03T16:12:39.004Z,6.70
2018-11-03T16:15:12.321Z,6.73
2018-11-03T16:17:44.841Z,6.27
2018-11-03T16:20:17.327Z,5.73
2018-11-03T16:22:50.255Z,6.07
2018-11-03T16:25:22.605Z,5.80
2018-11-03T16:27:55.010Z,7.47
2018-11-03T16:30:27.406Z,6.63
2018-11-03T16:32:59.867Z,6.27
2018-11-03T16:35:32.321Z,6.37
2018-11-03T16:38:04.867Z,6.60
2018-11-03T16:40:37.319Z,6.67
2018-11-03T16:43:09.807Z,7.50
2018-11-03T16:45:42.367Z,7.37
2018-11-03T16:48:14.754Z,7.10
2018-11-03T16:50:47.228Z,7.80
2018-11-03T16:53:19.849Z,7.93
2018-11-03T16:55:52.363Z,7.87
2018-11-03T16:58:24.829Z,7.80
2018-11-03T17:00:57.259Z,7.23
2018-11-03T17:03:29.796Z,8.07
2018-11-03T17:06:02.240Z,7.90
2018-11-03T17:08:34.720Z,7.83
2018-11-03T17:11:07.196Z,8.20
2018-11-03T17:13:39.922Z,7.60
2018-11-03T17:16:12.344Z,8.13
2018-11-03T17:18:44.859Z,8.90
2018-11-03T17:21:17.234Z,8.10
2018-11-03T17:23:49.822Z,9.37
2018-11-03T17:26:22.338Z,9.30
2018-11-03T17:28:55.484Z,10.03
2018-11-03T17:31:28.095Z,10.33
2018-11-03T17:34:00.836Z,9.90
2018-11-03T17:36:33.398Z,11.23
2018-11-03T17:39:07.830Z,11.87
2018-11-03T17:41:40.332Z,12.37
2018-11-03T17:44:12.977Z,12.27
2018-11-03T17:46:45.393Z,12.90
2018-11-03T17:49:18.110Z,12.77
2018-11-03T17:51:50.502Z,14.87
2018-11-03T17:54:23.042Z,15.20
2018-11-03T17:56:55.468Z,16.70
2018-11-03T17:59:28.245Z,17.37
2018-11-03T18:02:00.683Z,16.90
2018-11-03T18:04:33.126Z,17.03
2018-11-03T18:07:05.646Z,16.97
2018-11-03T18:09:38.390Z,16.07
2018-11-03T18:12:10.816Z,15.73
2018-11-03T18:14:43.306Z,17.30
2018-11-03T18:17:15.733Z,15.70
2018-11-03T18:19:48.365Z,16.53
2018-11-03T18:22:20.799Z,15.70
2018-11-03T18:24:53.215Z,14.90
2018-11-03T18:27:25.714Z,17.10
2018-11-03T18:29:58.133Z,16.07
2018-11-03T18:32:30.633Z,16.57
2018-11-03T18:35:03.183Z,17.43
2018-11-03T18:37:35.744Z,18.67
2018-11-03T18:40:08.621Z,20.60
2018-11-03T18:42:41.115Z,19.43
2018-11-03T18:45:15.042Z,20.77
2018-11-03T18:47:47.496Z,19.50
2018-11-03T18:50:19.941Z,18.97
2018-11-03T18:52:52.488Z,19.40
2018-11-03T18:55:24.908Z,19.87
2018-11-03T18:57:57.437Z,18.77
2018-11-03T19:00:29.893Z,18.43
2018-11-03T19:03:02.368Z,20.47
2018-11-03T19:05:35.873Z,19.80
2018-11-03T19:08:08.514Z,19.37
2018-11-03T19:10:40.999Z,21.03
2018-11-03T19:13:13.551Z,21.27
2018-11-03T19:15:46.069Z,20.97
2018-11-03T19:18:18.511Z,21.00
2018-11-03T19:20:50.922Z,20.80
2018-11-03T19:23:23.504Z,22.23
2018-11-03T19:25:55.963Z,20.40
2018-11-03T19:28:28.444Z,20.87
2018-11-03T19:31:00.887Z,20.70
2018-11-03T19:33:33.362Z,22.40
2018-11-03T19:36:06.023Z,21.07
2018-11-03T19:38:38.512Z,20.57
2018-11-03T19:41:11.001Z,20.37
2018-11-03T19:43:43.675Z,19.77
2018-11-03T19:46:16.166Z,19.17
2018-11-03T19:48:48.764Z,19.27
2018-11-03T19:51:21.162Z,18.07
2018-11-03T19:53:53.597Z,17.30
2018-11-03T19:56:25.982Z,18.70
2018-11-03T19:58:58.401Z,18.00
2018-11-03T20:01:30.791Z,17.10
2018-11-03T20:04:03.278Z,19.03
2018-11-03T20:06:35.813Z,20.43
2018-11-03T20:09:08.281Z,22.07
2018-11-03T20:11:40.686Z,22.17
2018-11-03T20:14:13.122Z,21.63
2018-11-03T20:16:45.547Z,21.70
2018-11-03T20:19:17.948Z,20.17
2018-11-03T20:21:50.300Z,19.27
2018-11-03T20:24:22.897Z,20.80
2018-11-03T20:26:55.335Z,21.07
2018-11-03T20:29:27.753Z,20.63
2018-11-03T20:32:00.329Z,20.70
2018-11-03T20:34:32.753Z,21.03
2018-11-03T20:37:05.163Z,19.80
2018-11-03T20:39:38.121Z,20.20
2018-11-03T20:42:10.506Z,21.03
2018-11-03T20:44:42.999Z,19.83
2018-11-03T20:47:15.525Z,21.03
2018-11-03T20:49:47.937Z,23.03
2018-11-03T20:52:20.580Z,21.03
2018-11-03T20:54:53.133Z,22.57
2018-11-03T20:57:25.716Z,21.27
2018-11-03T20:59:58.117Z,21.27
2018-11-03T21:02:30.462Z,21.97
2018-11-03T21:05:02.902Z,26.97
2018-11-03T21:07:35.417Z,21.50
2018-11-03T21:10:08.010Z,20.73
2018-11-03T21:12:40.396Z,20.97
2018-11-03T21:15:12.837Z,21.17
2018-11-03T21:17:45.259Z,21.33
2018-11-03T21:20:17.727Z,21.30
2018-11-03T21:22:50.211Z,20.20
2018-11-03T21:25:22.688Z,20.40
2018-11-03T21:27:55.562Z,21.70
2018-11-03T21:30:27.981Z,19.13
2018-11-03T21:33:00.568Z,18.77
2018-11-03T21:35:32.900Z,19.80
2018-11-03T21:38:05.366Z,19.27
2018-11-03T21:40:37.861Z,19.67
2018-11-03T21:43:10.306Z,20.17
2018-11-03T21:45:42.775Z,18.60
2018-11-03T21:48:15.335Z,19.43
2018-11-03T21:50:47.858Z,18.87
2018-11-03T21:53:20.293Z,19.33
2018-11-03T21:55:52.827Z,19.00
2018-11-03T21:58:25.215Z,19.73
2018-11-03T22:00:57.938Z,18.23
2018-11-03T22:03:30.461Z,18.40
2018-11-03T22:06:02.980Z,17.93
2018-11-03T22:08:35.532Z,19.13
2018-11-03T22:11:08.077Z,20.13
2018-11-03T22:13:40.957Z,20.13
2018-11-03T22:16:13.458Z,18.10
2018-11-03T22:18:45.873Z,18.17
2018-11-03T22:21:18.342Z,18.17
2018-11-03T22:23:50.699Z,17.33
2018-11-03T22:26:23.088Z,17.87
2018-11-03T22:28:57.352Z,17.63
2018-11-03T22:31:30.059Z,18.30
2018-11-03T22:34:02.523Z,18.10
2018-11-03T22:36:35.010Z,18.27
2018-11-03T22:39:07.850Z,19.43
2018-11-03T22:41:40.352Z,21.20
2018-11-03T22:44:12.969Z,20.53
2018-11-03T22:46:45.406Z,18.13
2018-11-03T22:49:18.027Z,19.40
2018-11-03T22:51:50.655Z,18.80
2018-11-03T22:54:23.038Z,17.80
2018-11-03T22:56:55.551Z,18.90
2018-11-03T22:59:28.005Z,17.87
2018-11-03T23:02:00.542Z,17.53
2018-11-03T23:04:32.986Z,17.73
2018-11-03T23:07:05.515Z,17.83
2018-11-03T23:09:38.191Z,17.90
2018-11-03T23:12:10.722Z,16.93
2018-11-03T23:14:43.272Z,17.87
2018-11-03T23:17:15.740Z,17.40
2018-11-03T23:19:48.163Z,18.40
2018-11-03T23:22:20.601Z,28.53
2018-11-03T23:24:53.025Z,24.47
2018-11-03T23:27:25.543Z,22.07
2018-11-03T23:29:58.158Z,20.47
2018-11-03T23:32:30.515Z,20.40
2018-11-03T23:35:02.990Z,19.47
2018-11-03T23:37:35.433Z,19.93
2018-11-03T23:40:10.087Z,18.60
2018-11-03T23:42:42.562Z,19.00
2018-11-03T23:45:14.995Z,17.57
2018-11-03T23:47:48.015Z,17.73
2018-11-03T23:50:20.518Z,16.07
2018-11-03T23:52:52.990Z,16.23
2018-11-03T23:55:25.725Z,17.03
2018-11-03T23:57:58.175Z,17.47
